createdAt,value
2018-05-08T00:02:18.645Z,0.80
2018-05-08T00:04:46.769Z,0.80
2018-05-08T00:07:14.226Z,1.00
2018-05-08T00:09:41.657Z,1.00
2018-05-08T00:12:09.102Z,0.90
2018-05-08T00:14:37.312Z,0.90
2018-05-08T00:17:04.776Z,0.70
2018-05-08T00:19:32.216Z,1.00
2018-05-08T00:21:59.644Z,0.80
2018-05-08T00:24:27.866Z,0.80
2018-05-08T00:26:55.296Z,0.70
2018-05-08T00:29:22.747Z,0.70
2018-05-08T00:31:50.947Z,0.70
2018-05-08T00:34:18.384Z,0.80
2018-05-08T00:36:45.820Z,1.00
2018-05-08T00:39:14.025Z,1.27
2018-05-08T00:41:41.457Z,0.93
2018-05-08T00:44:09.692Z,0.90
2018-05-08T00:46:37.414Z,1.10
2018-05-08T00:49:05.625Z,1.10
2018-05-08T00:51:33.065Z,1.20
2018-05-08T00:54:00.540Z,1.10
2018-05-08T00:56:27.972Z,0.77
2018-05-08T00:58:55.403Z,1.07
2018-05-08T01:01:22.848Z,1.27
2018-05-08T01:03:50.284Z,1.30
2018-05-08T01:06:18.524Z,1.33
2018-05-08T01:08:45.969Z,1.20
2018-05-08T01:11:13.427Z,1.33
2018-05-08T01:13:40.869Z,1.20
2018-05-08T01:16:08.323Z,1.00
2018-05-08T01:18:35.748Z,1.20
2018-05-08T01:21:03.987Z,0.97
2018-05-08T01:23:31.420Z,1.23
2018-05-08T01:25:58.872Z,1.00
2018-05-08T01:28:26.325Z,0.90
2018-05-08T01:30:53.790Z,0.83
2018-05-08T01:33:21.229Z,1.10
2018-05-08T01:35:48.665Z,0.80
2018-05-08T01:38:16.869Z,1.00
2018-05-08T01:40:44.321Z,1.00
2018-05-08T01:43:11.829Z,1.30
2018-05-08T01:45:39.244Z,0.97
2018-05-08T01:48:06.700Z,1.00
2018-05-08T01:50:34.146Z,0.87
2018-05-08T01:53:01.597Z,0.87
2018-05-08T01:55:29.033Z,0.90
2018-05-08T01:57:57.242Z,0.90
2018-05-08T02:00:24.699Z,1.10
2018-05-08T02:02:52.156Z,1.20
2018-05-08T02:05:19.606Z,0.90
2018-05-08T02:07:47.041Z,0.90
2018-05-08T02:10:14.480Z,0.90
2018-05-08T02:12:42.740Z,0.80
2018-05-08T02:15:10.175Z,1.00
2018-05-08T02:17:37.614Z,0.90
2018-05-08T02:20:05.056Z,0.83
2018-05-08T02:22:32.493Z,0.87
2018-05-08T02:24:59.929Z,1.00
2018-05-08T02:27:28.148Z,1.10
2018-05-08T02:29:55.596Z,1.10
2018-05-08T02:32:23.058Z,1.27
2018-05-08T02:34:50.492Z,1.20
2018-05-08T02:37:17.932Z,0.90
2018-05-08T02:39:46.142Z,1.40
2018-05-08T02:42:13.656Z,1.30
2018-05-08T02:44:41.084Z,1.60
2018-05-08T02:47:08.538Z,1.53
2018-05-08T02:49:36.305Z,1.47
2018-05-08T02:52:03.716Z,1.60
2018-05-08T02:54:31.154Z,1.47
2018-05-08T02:56:59.364Z,1.30
2018-05-08T02:59:26.801Z,1.63
2018-05-08T03:01:54.237Z,1.50
2018-05-08T03:04:22.447Z,1.23
2018-05-08T03:06:49.880Z,1.10
2018-05-08T03:09:17.321Z,1.00
2018-05-08T03:11:45.526Z,1.00
2018-05-08T03:14:12.961Z,1.10
2018-05-08T03:16:41.160Z,1.00
2018-05-08T03:19:08.593Z,1.20
2018-05-08T03:21:36.052Z,1.17
2018-05-08T03:24:03.483Z,1.53
2018-05-08T03:26:31.224Z,1.10
2018-05-08T03:28:58.749Z,1.27
2018-05-08T03:31:26.201Z,1.67
2018-05-08T03:33:53.623Z,1.20
2018-05-08T03:36:21.840Z,1.10
2018-05-08T03:38:49.294Z,0.97
2018-05-08T03:41:16.735Z,1.00
2018-05-08T03:43:44.220Z,1.00
2018-05-08T03:46:11.660Z,1.00
2018-05-08T03:48:39.099Z,0.80
2018-05-08T03:51:06.588Z,1.20
2018-05-08T03:53:34.030Z,1.00
2018-05-08T03:56:01.461Z,1.00
2018-05-08T03:58:28.901Z,0.80
2018-05-08T04:01:08.930Z,1.07
2018-05-08T04:03:48.224Z,1.20
2018-05-08T04:09:30.373Z,1.20
2018-05-08T04:11:57.809Z,1.10
2018-05-08T04:14:25.273Z,1.27
2018-05-08T04:16:52.713Z,1.20
2018-05-08T04:19:20.150Z,1.40
2018-05-08T04:21:47.607Z,1.50
2018-05-08T04:24:15.801Z,1.17
2018-05-08T04:26:43.233Z,1.30
2018-05-08T04:29:10.669Z,1.33
2018-05-08T04:31:38.868Z,1.43
2018-05-08T04:34:06.305Z,1.30
2018-05-08T04:36:34.597Z,1.13
2018-05-08T04:39:01.947Z,1.20
2018-05-08T04:41:29.385Z,1.40
2018-05-08T04:43:57.610Z,2.70
2018-05-08T04:46:25.057Z,1.83
2018-05-08T04:48:52.488Z,1.90
2018-05-08T04:51:19.928Z,1.30
2018-05-08T04:53:48.130Z,1.50
2018-05-08T04:56:15.565Z,1.30
2018-05-08T04:58:43.007Z,1.67
2018-05-08T05:01:10.443Z,1.20
2018-05-08T05:03:37.898Z,1.30
2018-05-08T05:06:05.337Z,1.07
2018-05-08T05:08:32.780Z,1.20
2018-05-08T05:11:00.210Z,1.10
2018-05-08T05:13:27.646Z,1.00
2018-05-08T05:15:55.873Z,1.10
2018-05-08T05:18:23.309Z,1.10
2018-05-08T05:20:50.741Z,1.10
2018-05-08T05:23:18.948Z,1.00
2018-05-08T05:25:46.373Z,1.00
2018-05-08T05:28:14.583Z,1.07
2018-05-08T05:30:42.021Z,1.10
2018-05-08T05:33:09.473Z,1.60
2018-05-08T05:35:36.912Z,0.97
2018-05-08T05:38:05.109Z,1.03
2018-05-08T05:40:32.545Z,1.47
2018-05-08T05:43:00.745Z,1.33
2018-05-08T05:45:28.180Z,1.20
2018-05-08T05:47:55.624Z,1.40
2018-05-08T05:50:23.848Z,1.30
2018-05-08T05:52:51.274Z,1.93
2018-05-08T05:55:18.714Z,1.80
2018-05-08T05:57:46.905Z,1.30
2018-05-08T06:00:14.331Z,2.20
2018-05-08T06:02:42.535Z,1.60
2018-05-08T06:05:10.884Z,1.60
2018-05-08T06:07:38.336Z,2.70
2018-05-08T06:10:05.770Z,2.13
2018-05-08T06:12:33.205Z,1.60
2018-05-08T06:15:00.690Z,2.07
2018-05-08T06:17:28.204Z,1.80
2018-05-08T06:19:55.653Z,1.70
2018-05-08T06:22:23.080Z,1.80
2018-05-08T06:24:51.288Z,1.70
2018-05-08T06:27:18.720Z,1.60
2018-05-08T06:29:47.008Z,1.60
2018-05-08T06:32:14.384Z,2.20
2018-05-08T06:34:41.832Z,1.93
2018-05-08T06:37:09.264Z,2.20
2018-05-08T06:39:37.492Z,1.50
2018-05-08T06:42:04.902Z,2.83
2018-05-08T06:44:32.336Z,2.13
2018-05-08T06:47:00.546Z,2.10
2018-05-08T06:49:27.987Z,1.70
2018-05-08T06:51:55.419Z,1.83
2018-05-08T06:54:22.868Z,2.40
2018-05-08T06:56:50.303Z,1.90
2018-05-08T07:01:45.517Z,2.33
2018-05-08T07:04:12.949Z,1.70
2018-05-08T07:06:40.403Z,1.90
2018-05-08T07:09:07.897Z,1.60
2018-05-08T07:11:35.326Z,2.10
2018-05-08T07:14:02.755Z,1.90
2018-05-08T07:16:30.197Z,1.93
2018-05-08T07:18:58.392Z,1.80
2018-05-08T07:21:25.866Z,1.80
2018-05-08T07:23:53.325Z,1.90
2018-05-08T07:26:20.758Z,2.00
2018-05-08T07:28:48.184Z,1.53
2018-05-08T07:31:15.669Z,1.73
2018-05-08T07:33:43.113Z,1.70
2018-05-08T07:36:11.321Z,1.63
2018-05-08T07:38:38.776Z,1.97
2018-05-08T07:41:06.211Z,1.80
2018-05-08T07:43:33.746Z,1.90
2018-05-08T07:46:01.193Z,1.70
2018-05-08T07:48:28.628Z,1.40
2018-05-08T07:50:56.063Z,1.63
2018-05-08T07:53:24.260Z,1.60
2018-05-08T07:55:51.706Z,1.60
2018-05-08T07:58:19.137Z,1.73
2018-05-08T08:00:46.844Z,1.40
2018-05-08T08:03:14.697Z,1.43
2018-05-08T08:05:42.164Z,1.63
2018-05-08T08:08:09.593Z,1.70
2018-05-08T08:10:37.034Z,2.47
2018-05-08T08:13:04.467Z,1.70
2018-05-08T08:15:32.670Z,1.30
2018-05-08T08:18:00.084Z,1.60
2018-05-08T08:20:28.294Z,1.50
2018-05-08T08:22:55.749Z,1.57
2018-05-08T08:25:23.192Z,1.60
2018-05-08T08:27:51.404Z,1.60
2018-05-08T08:30:18.844Z,1.33
2018-05-08T08:32:46.271Z,1.50
2018-05-08T08:35:14.518Z,1.60
2018-05-08T08:37:41.949Z,1.43
2018-05-08T08:40:09.403Z,1.93
2018-05-08T08:42:36.849Z,1.60
2018-05-08T08:45:04.279Z,1.60
2018-05-08T08:47:32.523Z,1.70
2018-05-08T08:49:59.964Z,1.50
2018-05-08T08:52:27.527Z,1.60
2018-05-08T08:54:54.910Z,2.07
2018-05-08T08:57:23.125Z,1.90
2018-05-08T08:59:50.552Z,1.90
2018-05-08T09:02:18.859Z,2.10
2018-05-08T09:04:46.285Z,1.80
2018-05-08T09:07:14.492Z,2.03
2018-05-08T09:09:41.915Z,1.83
2018-05-08T09:12:10.122Z,1.70
2018-05-08T09:14:37.550Z,1.60
2018-05-08T09:17:05.759Z,1.60
2018-05-08T09:19:33.180Z,1.87
2018-05-08T09:24:31.276Z,1.77
2018-05-08T09:26:58.723Z,2.00
2018-05-08T09:29:26.922Z,1.67
2018-05-08T09:31:54.357Z,1.20
2018-05-08T09:34:22.557Z,1.40
2018-05-08T09:36:50.018Z,1.67
2018-05-08T09:39:17.469Z,1.60
2018-05-08T09:41:44.905Z,1.40
2018-05-08T09:44:12.349Z,1.60
2018-05-08T09:46:40.543Z,1.80
2018-05-08T09:49:08.067Z,2.33
2018-05-08T09:51:36.186Z,1.80
2018-05-08T09:54:03.617Z,1.40
2018-05-08T09:56:31.842Z,2.43
2018-05-08T09:58:59.286Z,1.60
2018-05-08T10:01:26.761Z,1.60
2018-05-08T10:03:54.204Z,1.80
2018-05-08T10:06:21.636Z,1.70
2018-05-08T10:08:49.081Z,1.80
2018-05-08T10:11:17.277Z,1.70
2018-05-08T10:13:44.712Z,1.40
2018-05-08T10:16:12.910Z,1.80
2018-05-08T10:18:40.351Z,1.50
2018-05-08T10:21:07.776Z,1.73
2018-05-08T10:23:35.222Z,1.60
2018-05-08T10:26:02.653Z,1.60
2018-05-08T10:28:30.125Z,1.60
2018-05-08T10:30:57.572Z,1.63
2018-05-08T10:33:25.012Z,1.57
2018-05-08T10:35:52.445Z,1.60
2018-05-08T10:38:19.887Z,1.30
2018-05-08T10:40:48.089Z,1.17
2018-05-08T10:43:15.527Z,1.50
2018-05-08T10:45:42.964Z,1.33
2018-05-08T10:48:11.177Z,1.80
2018-05-08T10:50:38.606Z,1.73
2018-05-08T10:53:06.813Z,1.40
2018-05-08T10:55:34.244Z,1.50
2018-05-08T10:58:01.693Z,1.77
2018-05-08T11:00:29.914Z,1.60
2018-05-08T11:02:57.357Z,1.90
2018-05-08T11:05:25.564Z,1.80
2018-05-08T11:07:53.017Z,1.83
2018-05-08T11:10:20.450Z,1.43
2018-05-08T11:12:47.894Z,1.40
2018-05-08T11:15:15.358Z,1.50
2018-05-08T11:17:42.797Z,1.63
2018-05-08T11:20:10.238Z,2.10
2018-05-08T11:22:38.444Z,1.60
2018-05-08T11:25:05.911Z,1.63
2018-05-08T11:27:33.380Z,1.43
2018-05-08T11:30:00.817Z,1.60
2018-05-08T11:32:28.249Z,1.80
2018-05-08T11:34:56.453Z,1.90
2018-05-08T11:37:23.900Z,1.50
2018-05-08T11:39:51.362Z,1.57
2018-05-08T11:42:18.804Z,1.70
2018-05-08T11:44:46.330Z,1.70
2018-05-08T11:47:14.453Z,1.73
2018-05-08T11:49:41.909Z,1.50
2018-05-08T11:52:10.119Z,1.60
2018-05-08T11:54:37.557Z,1.40
2018-05-08T11:57:04.998Z,1.30
2018-05-08T11:59:32.455Z,1.57
2018-05-08T12:01:59.877Z,1.20
2018-05-08T12:04:28.111Z,1.70
2018-05-08T12:06:55.553Z,1.63
2018-05-08T12:09:23.035Z,1.50
2018-05-08T12:11:51.273Z,1.60
2018-05-08T12:14:18.708Z,1.77
2018-05-08T12:16:46.910Z,1.30
2018-05-08T12:19:14.357Z,1.60
2018-05-08T12:21:41.832Z,1.50
2018-05-08T12:24:10.038Z,1.77
2018-05-08T12:26:37.464Z,1.60
2018-05-08T12:29:04.910Z,1.50
2018-05-08T12:31:33.108Z,1.27
2018-05-08T12:34:00.546Z,1.50
2018-05-08T12:36:27.980Z,1.80
2018-05-08T12:38:56.181Z,1.57
2018-05-08T12:41:23.693Z,1.60
2018-05-08T12:43:51.138Z,1.40
2018-05-08T12:46:19.372Z,1.40
2018-05-08T12:48:46.816Z,1.50
2018-05-08T12:51:14.257Z,1.57
2018-05-08T12:53:42.458Z,1.40
2018-05-08T12:56:09.932Z,1.20
2018-05-08T12:58:37.361Z,1.50
2018-05-08T13:01:05.653Z,1.60
2018-05-08T13:03:33.217Z,1.60
2018-05-08T13:06:00.689Z,1.90
2018-05-08T13:08:28.131Z,1.37
2018-05-08T13:10:55.571Z,1.90
2018-05-08T13:13:23.000Z,1.30
2018-05-08T13:15:51.215Z,1.63
2018-05-08T13:18:18.724Z,1.40
2018-05-08T13:20:46.112Z,1.43
2018-05-08T13:23:13.578Z,1.20
2018-05-08T13:25:41.021Z,1.53
2018-05-08T13:28:08.483Z,1.70
2018-05-08T13:30:36.557Z,1.47
2018-05-08T13:33:04.438Z,1.40
2018-05-08T13:35:35.642Z,1.60
2018-05-08T13:38:04.280Z,2.17
2018-05-08T13:40:35.029Z,1.40
2018-05-08T13:43:05.089Z,1.40
2018-05-08T13:45:35.144Z,1.30
2018-05-08T13:48:03.971Z,1.67
2018-05-08T13:50:31.434Z,1.40
2018-05-08T13:52:58.861Z,1.20
2018-05-08T13:55:26.360Z,1.43
2018-05-08T13:57:53.813Z,1.23
2018-05-08T14:00:21.252Z,1.37
2018-05-08T14:02:48.686Z,1.33
2018-05-08T14:05:16.131Z,1.40
2018-05-08T14:07:43.571Z,1.20
2018-05-08T14:10:11.029Z,1.20
2018-05-08T14:12:38.465Z,1.30
2018-05-08T14:15:06.673Z,1.20
2018-05-08T14:17:34.869Z,1.30
2018-05-08T14:20:03.076Z,1.37
2018-05-08T14:22:30.519Z,1.20
2018-05-08T14:24:58.010Z,1.50
2018-05-08T14:27:25.416Z,1.30
2018-05-08T14:29:52.858Z,1.13
2018-05-08T14:32:20.294Z,1.40
2018-05-08T14:34:48.488Z,1.10
2018-05-08T14:37:15.932Z,1.30
2018-05-08T14:39:43.392Z,1.10
2018-05-08T14:42:10.833Z,1.00
2018-05-08T14:44:39.053Z,0.90
2018-05-08T14:47:07.261Z,1.00
2018-05-08T14:49:34.793Z,1.10
2018-05-08T14:52:02.164Z,1.00
2018-05-08T14:54:29.596Z,0.97
2018-05-08T14:56:57.042Z,0.93
2018-05-08T14:59:24.481Z,1.00
2018-05-08T15:01:51.925Z,0.93
2018-05-08T15:04:20.144Z,1.10
2018-05-08T15:06:47.561Z,1.23
2018-05-08T15:09:15.841Z,1.10
2018-05-08T15:11:43.375Z,1.20
2018-05-08T15:14:10.800Z,0.90
2018-05-08T15:16:38.237Z,1.33
2018-05-08T15:19:06.576Z,1.20
2018-05-08T15:21:34.793Z,1.23
2018-05-08T15:24:02.234Z,1.00
2018-05-08T15:26:29.685Z,1.20
2018-05-08T15:28:57.116Z,1.20
2018-05-08T15:31:24.624Z,1.03
2018-05-08T15:33:52.090Z,1.10
2018-05-08T15:36:19.536Z,1.10
2018-05-08T15:38:46.995Z,1.40
2018-05-08T15:41:14.456Z,1.43
2018-05-08T15:43:42.661Z,1.27
2018-05-08T15:46:10.169Z,1.27
2018-05-08T15:48:37.652Z,1.57
2018-05-08T15:51:05.098Z,0.90
2018-05-08T15:53:32.543Z,1.00
2018-05-08T15:56:00.747Z,1.17
2018-05-08T15:58:28.189Z,1.00
2018-05-08T16:00:55.621Z,1.10
2018-05-08T16:03:23.821Z,1.27
2018-05-08T16:05:51.271Z,1.27
2018-05-08T16:08:18.740Z,1.30
2018-05-08T16:10:46.357Z,1.30
2018-05-08T16:13:13.793Z,1.20
2018-05-08T16:15:41.223Z,1.50
2018-05-08T16:18:08.673Z,1.40
2018-05-08T16:20:37.322Z,1.70
2018-05-08T16:23:04.792Z,1.27
2018-05-08T16:25:32.241Z,1.17
2018-05-08T16:28:00.460Z,1.10
2018-05-08T16:30:27.996Z,1.00
2018-05-08T16:32:56.133Z,1.50
2018-05-08T16:35:23.565Z,1.20
2018-05-08T16:37:51.013Z,1.53
2018-05-08T16:40:18.456Z,1.30
2018-05-08T16:42:45.929Z,1.30
2018-05-08T16:45:13.463Z,1.50
2018-05-08T16:47:40.905Z,1.20
2018-05-08T16:50:08.479Z,1.30
2018-05-08T16:52:36.290Z,1.30
2018-05-08T16:55:04.521Z,1.40
2018-05-08T16:57:32.863Z,1.10
2018-05-08T17:00:01.945Z,1.30
2018-05-08T17:02:29.438Z,1.10
2018-05-08T17:04:56.865Z,1.00
2018-05-08T17:07:24.310Z,1.00
2018-05-08T17:09:51.746Z,0.90
2018-05-08T17:12:19.186Z,1.03
2018-05-08T17:14:46.628Z,0.90
2018-05-08T17:17:14.073Z,0.93
2018-05-08T17:19:41.514Z,1.37
2018-05-08T17:22:09.743Z,1.00
2018-05-08T17:24:37.189Z,1.03
2018-05-08T17:27:04.657Z,1.10
2018-05-08T17:29:32.097Z,0.97
2018-05-08T17:31:59.540Z,1.00
2018-05-08T17:34:27.941Z,1.10
2018-05-08T17:36:55.391Z,0.90
2018-05-08T17:39:23.111Z,1.03
2018-05-08T17:41:51.334Z,1.00
2018-05-08T17:44:18.782Z,1.20
2018-05-08T17:46:46.221Z,0.80
2018-05-08T17:49:13.665Z,0.80
2018-05-08T17:51:41.887Z,1.27
2018-05-08T17:54:09.338Z,1.00
2018-05-08T17:56:36.843Z,1.00
2018-05-08T17:59:04.273Z,1.00
2018-05-08T18:01:31.714Z,0.80
2018-05-08T18:03:59.188Z,0.90
2018-05-08T18:06:26.598Z,1.00
2018-05-08T18:08:54.041Z,0.80
2018-05-08T18:11:22.438Z,0.80
2018-05-08T18:13:50.098Z,0.90
2018-05-08T18:16:17.664Z,0.80
2018-05-08T18:18:45.212Z,0.80
2018-05-08T18:21:12.887Z,0.73
2018-05-08T18:23:40.376Z,0.60
2018-05-08T18:26:07.809Z,0.60
2018-05-08T18:28:35.324Z,0.97
2018-05-08T18:31:02.778Z,0.90
2018-05-08T18:33:30.218Z,0.90
2018-05-08T18:35:57.655Z,0.70
2018-05-08T18:38:25.090Z,0.70
2018-05-08T18:40:52.539Z,0.63
2018-05-08T18:43:19.997Z,0.90
2018-05-08T18:45:47.441Z,0.80
2018-05-08T18:48:14.893Z,0.80
2018-05-08T18:50:43.088Z,0.83
2018-05-08T18:53:10.533Z,1.00
2018-05-08T18:55:37.973Z,1.20
2018-05-08T18:58:06.208Z,0.80
2018-05-08T19:00:39.197Z,1.07
2018-05-08T19:03:06.624Z,0.90
2018-05-08T19:05:34.069Z,0.70
2018-05-08T19:08:01.495Z,0.47
2018-05-08T19:10:29.705Z,0.60
2018-05-08T19:12:57.149Z,0.53
2018-05-08T19:15:30.186Z,0.53
2018-05-08T19:17:57.625Z,0.50
2018-05-08T19:20:25.076Z,0.40
2018-05-08T19:22:52.523Z,0.70
2018-05-08T19:25:19.975Z,0.70
2018-05-08T19:27:47.416Z,0.53
2018-05-08T19:30:20.541Z,0.57
2018-05-08T19:32:47.982Z,0.60
2018-05-08T19:35:21.119Z,0.60
2018-05-08T19:37:54.228Z,0.57
2018-05-08T19:40:22.437Z,0.70
2018-05-08T19:42:49.871Z,0.60
2018-05-08T19:45:18.082Z,0.50
2018-05-08T19:47:45.525Z,0.50
2018-05-08T19:50:12.984Z,0.60
2018-05-08T19:52:40.408Z,0.50
2018-05-08T19:55:08.625Z,0.60
2018-05-08T19:57:36.057Z,0.70
2018-05-08T20:00:03.497Z,0.67
2018-05-08T20:02:31.702Z,0.80
2018-05-08T20:04:59.145Z,0.70
2018-05-08T20:07:26.584Z,0.60
2018-05-08T20:09:54.797Z,0.70
2018-05-08T20:12:22.259Z,0.60
2018-05-08T20:14:49.697Z,0.70
2018-05-08T20:17:17.910Z,0.83
2018-05-08T20:19:45.382Z,0.70
2018-05-08T20:22:12.830Z,0.57
2018-05-08T20:24:40.265Z,0.70
2018-05-08T20:27:07.801Z,0.63
2018-05-08T20:29:35.232Z,0.50
2018-05-08T20:32:02.693Z,0.80
2018-05-08T20:34:30.883Z,0.50
2018-05-08T20:36:58.334Z,0.60
2018-05-08T20:39:25.774Z,0.53
2018-05-08T20:41:53.991Z,0.60
2018-05-08T20:44:21.430Z,0.70
2018-05-08T20:46:48.901Z,0.70
2018-05-08T20:49:16.411Z,0.60
2018-05-08T20:51:43.781Z,0.70
2018-05-08T20:54:11.229Z,0.60
2018-05-08T20:56:39.434Z,0.80
2018-05-08T20:59:06.876Z,0.70
2018-05-08T21:01:34.309Z,0.70
2018-05-08T21:04:02.559Z,0.80
2018-05-08T21:06:30.003Z,1.10
2018-05-08T21:08:57.485Z,0.90
2018-05-08T21:11:24.924Z,0.80
2018-05-08T21:13:52.405Z,0.73
2018-05-08T21:16:20.656Z,0.70
2018-05-08T21:18:48.111Z,0.80
2018-05-08T21:21:15.558Z,0.70
2018-05-08T21:23:43.047Z,0.80
2018-05-08T21:26:10.484Z,0.80
2018-05-08T21:28:43.466Z,0.80
2018-05-08T21:31:13.848Z,0.80
2018-05-08T21:33:41.317Z,0.73
2018-05-08T21:36:08.772Z,0.90
2018-05-08T21:38:36.204Z,0.80
2018-05-08T21:41:03.676Z,0.73
2018-05-08T21:43:31.190Z,0.70
2018-05-08T21:45:58.622Z,0.60
2018-05-08T21:48:26.050Z,0.50
2018-05-08T21:50:53.532Z,0.80
2018-05-08T21:53:20.972Z,0.80
2018-05-08T21:55:48.432Z,0.90
2018-05-08T21:58:15.876Z,0.80
2018-05-08T22:00:43.314Z,0.90
2018-05-08T22:03:10.751Z,0.80
2018-05-08T22:05:38.944Z,0.80
2018-05-08T22:08:06.381Z,0.90
2018-05-08T22:10:34.580Z,0.70
2018-05-08T22:13:02.023Z,0.70
2018-05-08T22:15:30.221Z,0.90
2018-05-08T22:17:57.657Z,0.80
2018-05-08T22:20:25.856Z,0.70
2018-05-08T22:22:53.302Z,0.93
2018-05-08T22:25:20.743Z,0.80
2018-05-08T22:27:48.187Z,0.70
2018-05-08T22:30:16.385Z,0.70
2018-05-08T22:32:43.829Z,0.80
2018-05-08T22:35:11.279Z,0.80
2018-05-08T22:37:39.500Z,1.00
2018-05-08T22:40:06.937Z,0.80
2018-05-08T22:42:34.376Z,0.70
2018-05-08T22:45:01.827Z,0.93
2018-05-08T22:47:29.272Z,0.77
2018-05-08T22:49:57.478Z,0.50
2018-05-08T22:52:24.920Z,0.70
2018-05-08T22:54:52.353Z,0.70
2018-05-08T22:57:20.565Z,0.80
2018-05-08T22:59:48.004Z,0.70
2018-05-08T23:02:15.454Z,0.70
2018-05-08T23:04:43.649Z,0.90
2018-05-08T23:07:11.089Z,0.87
2018-05-08T23:09:38.546Z,0.70
2018-05-08T23:12:06.005Z,0.67
2018-05-08T23:14:33.456Z,1.13
2018-05-08T23:17:00.896Z,0.80
2018-05-08T23:19:29.105Z,1.20
2018-05-08T23:21:56.539Z,1.00
2018-05-08T23:24:24.746Z,0.90
2018-05-08T23:26:52.193Z,0.90
2018-05-08T23:29:19.637Z,0.80
2018-05-08T23:31:47.068Z,1.03
2018-05-08T23:34:15.276Z,1.20
2018-05-08T23:36:42.708Z,1.03
2018-05-08T23:39:10.925Z,1.17
2018-05-08T23:41:38.369Z,0.80
2018-05-08T23:44:05.823Z,1.00
2018-05-08T23:46:33.252Z,1.10
2018-05-08T23:49:01.456Z,0.80
2018-05-08T23:51:28.905Z,0.90
2018-05-08T23:53:56.348Z,0.97
2018-05-08T23:56:23.781Z,0.90
2018-05-08T23:58:52.027Z,0.93
